メインページ
METAR-TAF:

METAR-TAF

空港 :

カフルイ空港

カフルイ, ハワイ州, アメリカ合衆国

緯度: 20-53-33N, 経度: 156-26-13W, 海抜: 16m

現時点の気象観測

当レポートは14分前の16:54(UTC)に作成
北/北東の風 7kt
気温 23°C
湿度 78%
気圧 1016 hPa
視程: 16.1km
高度2000ftの雲はほとんどない
高度6500ftの雲は散在している

METAR: PHOG 221654Z COR 10SM 02007KT FEW020 SCT065 23/19 A3001 RMK AO2 SLP166 T02280189

時間: 07:08 (17:08 UTC)

予報

当レポートは2時間8分前の15:00(UTC)に作成
予報は22日の 15時(UTC)から 23日の 12時(UTC)まで有効
北東の風 9kt、最大14ktの突風を伴う
視程: 10km
高度3000ftの雲はほとんどない
高度5000ftの雲はほとんどない
22日の 2000時(UTC)から
東/北東の風 18kt、最大29ktの突風を伴う
視程: 10km
高度3500ftの雲はほとんどない
高度5000ftの雲は散在している
23日の 0500時(UTC)から
東/北東の風 12kt、最大18ktの突風を伴う
視程: 10km
高度3000ftの雲はほとんどない
高度5000ftの雲はほとんどない

TAF: PHOG 221500Z 2215/2312 04009G14KT P6SM FEW030 FEW050 FM222000 06018G29KT P6SM FEW035 SCT050 FM230500 06012G18KT P6SM FEW030 FEW050 AMD LTD TO VIS AND WIND TIL 221600

4,000以上の空港の気象観測と天気予報(METAR報とTAF報)

利用可能な観測所は地図上に黄色い丸と赤い丸で示す。

丸の上にカーソルを重ねると観測所名を参照できる。

次にクリックすると気象観測と天気予報を参照できる。

マップの切り替え:黒色「×」印の緑ボタンをクリックして拡大、「-」印の緑ボタンをクリックして縮小、緑色の三角印をクリックして隣りの地図に切り替え


METAR-TAF: